Time;durP1;ratioP1;P1;durP2;ratioP2;P2;SDS_P1;SDS_P2;PMS_P1;PMS_P2;Temp;Humidity;BMP_temperature;BMP_pressure;BME280_temperature;BME280_humidity;BME280_pressure;Samples;Min_cycle;Max_cycle;Signal;HPM_P1;HPM_P2
2023/06/30 00:00:56;;;;;;;6.68;4.68;;;;;;;18.55;58.53;94731.44;4212789;28;20055;-59
2023/06/30 00:02:59;;;;;;;15.15;5.25;;;;;;;18.60;58.55;94736.91;4204630;28;20056;-58
2023/06/30 00:05:01;;;;;;;5.50;4.70;;;;;;;18.64;58.47;94740.78;4199875;28;20040;-57
2023/06/30 00:07:03;;;;;;;6.45;4.63;;;;;;;18.64;57.74;94748.75;4209864;28;20052;-56
2023/06/30 00:09:04;;;;;;;4.43;4.03;;;;;;;18.62;57.74;94734.88;4206180;28;20101;-57
2023/06/30 00:11:06;;;;;;;5.47;4.85;;;;;;;18.61;57.82;94733.25;4211964;28;20044;-57
2023/06/30 00:13:08;;;;;;;6.65;4.82;;;;;;;18.58;58.35;94738.97;4211224;28;20482;-56
2023/06/30 00:15:10;;;;;;;6.20;5.10;;;;;;;18.52;58.96;94739.78;4209163;28;20098;-57
2023/06/30 00:17:11;;;;;;;6.82;5.00;;;;;;;18.26;59.37;94736.16;4211437;28;20645;-59
2023/06/30 00:19:13;;;;;;;6.00;4.90;;;;;;;18.06;59.81;94735.34;4210895;28;20055;-57
2023/06/30 00:21:15;;;;;;;8.02;4.70;;;;;;;17.95;60.15;94744.72;4212277;28;20067;-56
2023/06/30 00:23:17;;;;;;;6.68;5.35;;;;;;;17.90;60.58;94736.59;4204431;28;20048;-57
2023/06/30 00:25:19;;;;;;;8.38;5.80;;;;;;;17.94;60.87;94735.97;4212982;28;20047;-56
2023/06/30 00:27:22;;;;;;;6.60;5.30;;;;;;;17.97;60.56;94737.41;4211160;28;20055;-59
2023/06/30 00:29:23;;;;;;;6.05;4.95;;;;;;;17.96;60.18;94736.59;4209066;28;20056;-57
2023/06/30 00:31:25;;;;;;;9.52;5.20;;;;;;;18.00;59.84;94740.47;4212256;28;20057;-58
2023/06/30 00:33:27;;;;;;;6.85;4.72;;;;;;;18.04;59.74;94742.69;4212550;28;20610;-57
2023/06/30 00:35:29;;;;;;;7.32;4.68;;;;;;;18.08;59.95;94733.31;4212736;28;20093;-57
2023/06/30 00:37:31;;;;;;;6.40;4.82;;;;;;;18.07;59.97;94732.50;4210036;28;20059;-56
2023/06/30 00:39:32;;;;;;;6.55;4.78;;;;;;;17.98;60.29;94734.56;4209983;28;20052;-56
2023/06/30 00:41:34;;;;;;;5.70;5.10;;;;;;;17.96;60.92;94733.94;4211364;28;20059;-60
2023/06/30 00:43:38;;;;;;;6.75;6.00;;;;;;;17.98;61.14;94739.84;4210834;28;20421;-59
2023/06/30 00:45:40;;;;;;;;;;;;;;;18.00;61.48;94732.50;4213140;28;20044;-58
2023/06/30 00:47:41;;;;;;;11.60;5.53;;;;;;;18.06;61.48;94738.00;4211446;28;19970;-57
2023/06/30 00:49:43;;;;;;;7.45;6.75;;;;;;;18.01;61.79;94734.13;4212033;28;20043;-59
2023/06/30 00:51:45;;;;;;;8.18;5.85;;;;;;;17.94;62.10;94738.63;4200970;28;20570;-56
2023/06/30 00:53:47;;;;;;;7.30;5.35;;;;;;;17.64;61.65;94732.88;4208880;28;20052;-57
2023/06/30 00:55:50;;;;;;;7.63;5.13;;;;;;;17.45;62.32;94733.66;4209136;28;20064;-57
2023/06/30 00:57:52;;;;;;;5.78;5.18;;;;;;;17.37;62.78;94734.63;4201054;28;20088;-57
2023/06/30 00:59:53;;;;;;;8.85;6.25;;;;;;;17.42;63.00;94728.72;4210950;28;20122;-58
2023/06/30 01:02:18;;;;;;;8.07;6.10;;;;;;;17.49;62.60;94738.34;4199777;28;20486;-57
2023/06/30 01:04:45;;;;;;;8.52;5.60;;;;;;;17.35;62.60;94744.59;4211684;28;20044;-55
2023/06/30 01:06:53;;;;;;;8.40;5.80;;;;;;;17.32;62.62;94731.78;4202013;28;20083;-57
2023/06/30 01:08:59;;;;;;;7.22;5.90;;;;;;;17.33;63.27;94741.34;4210601;28;20486;-56
2023/06/30 01:11:02;;;;;;;7.18;6.03;;;;;;;17.34;62.60;94735.84;4209446;28;20052;-57
2023/06/30 01:13:05;;;;;;;6.05;5.50;;;;;;;17.31;62.65;94730.94;4211620;28;20058;-56
2023/06/30 01:15:07;;;;;;;6.43;5.78;;;;;;;17.26;62.67;94736.03;4207601;28;20135;-56
2023/06/30 01:17:09;;;;;;;6.50;5.90;;;;;;;17.26;62.99;94738.69;4206889;28;20050;-56
2023/06/30 01:19:26;;;;;;;7.97;5.53;;;;;;;17.31;62.57;94738.06;4210827;28;20126;-57
2023/06/30 01:21:29;;;;;;;7.32;6.15;;;;;;;17.38;62.76;94734.44;4205111;28;20406;-58
2023/06/30 01:23:35;;;;;;;7.88;5.90;;;;;;;17.43;62.39;94733.84;4205459;28;20048;-57
2023/06/30 01:25:37;;;;;;;6.85;6.22;;;;;;;17.42;62.49;94729.53;4209999;28;20481;-58
2023/06/30 01:27:40;;;;;;;7.53;5.90;;;;;;;17.44;62.65;94724.06;4209243;28;20048;-59
2023/06/30 01:29:43;;;;;;;8.23;5.82;;;;;;;17.47;62.69;94721.81;4205786;28;20102;-56
2023/06/30 01:31:45;;;;;;;7.38;5.97;;;;;;;17.50;62.79;94718.75;4206578;28;20315;-56
2023/06/30 01:33:47;;;;;;;7.13;5.68;;;;;;;17.54;62.41;94725.28;4208662;28;20123;-54
2023/06/30 01:35:49;;;;;;;6.85;6.15;;;;;;;17.53;62.21;94713.09;4209661;28;20143;-57
2023/06/30 01:37:51;;;;;;;8.05;5.93;;;;;;;17.51;62.43;94720.41;4198512;28;20048;-59
2023/06/30 01:39:53;;;;;;;6.43;5.80;;;;;;;17.53;62.34;94714.91;4206391;28;20536;-59
2023/06/30 01:41:55;;;;;;;6.45;5.70;;;;;;;17.57;62.83;94713.47;4210013;28;20460;-58
2023/06/30 01:43:57;;;;;;;7.28;6.45;;;;;;;17.58;62.70;94708.00;4208528;28;20052;-57
2023/06/30 01:45:58;;;;;;;10.15;6.00;;;;;;;17.58;62.76;94702.69;4199209;28;20178;-56
2023/06/30 01:48:00;;;;;;;7.70;5.82;;;;;;;17.59;62.72;94704.34;4209714;28;20102;-58
2023/06/30 01:50:03;;;;;;;6.85;6.15;;;;;;;17.47;62.84;94715.72;4199325;28;20569;-58
2023/06/30 01:52:05;;;;;;;7.95;6.35;;;;;;;17.34;63.04;94711.22;4204986;28;20078;-56
2023/06/30 01:54:07;;;;;;;15.80;6.68;;;;;;;17.27;63.55;94713.84;4208827;28;20044;-60
2023/06/30 01:56:08;;;;;;;8.85;6.57;;;;;;;17.16;63.82;94707.31;4209134;28;20118;-55
2023/06/30 01:58:10;;;;;;;7.07;6.28;;;;;;;17.00;63.92;94705.00;4197471;28;20052;-58
2023/06/30 02:00:12;;;;;;;12.20;7.05;;;;;;;16.68;64.87;94707.28;4208579;28;20718;-59
2023/06/30 02:02:14;;;;;;;12.75;7.35;;;;;;;16.50;65.47;94702.53;4204210;28;20094;-57
2023/06/30 02:04:16;;;;;;;12.45;7.63;;;;;;;16.53;65.77;94707.41;4204853;28;20127;-55
2023/06/30 02:06:17;;;;;;;11.30;6.93;;;;;;;16.54;65.95;94701.13;4198003;28;20066;-56
2023/06/30 02:08:19;;;;;;;12.45;6.50;;;;;;;16.62;66.24;94705.41;4199721;28;20040;-55
2023/06/30 02:10:21;;;;;;;7.20;6.25;;;;;;;16.77;65.59;94711.38;4209324;28;20074;-55
2023/06/30 02:12:22;;;;;;;7.80;7.10;;;;;;;16.88;65.29;94707.38;4207428;28;20048;-60
2023/06/30 02:14:24;;;;;;;7.53;6.25;;;;;;;16.97;65.34;94710.69;4201755;28;20062;-56
2023/06/30 02:16:26;;;;;;;8.55;6.57;;;;;;;16.86;64.66;94713.91;4208242;28;20151;-60
2023/06/30 02:18:28;;;;;;;9.73;6.95;;;;;;;16.77;65.18;94708.75;4211354;28;20442;-58
2023/06/30 02:20:29;;;;;;;7.15;6.45;;;;;;;16.84;65.28;94711.44;4209085;28;20411;-57
2023/06/30 02:22:31;;;;;;;8.20;6.88;;;;;;;16.85;65.00;94715.72;4210750;28;20050;-58
2023/06/30 02:24:33;;;;;;;8.05;6.13;;;;;;;16.88;64.93;94715.31;4209823;28;20497;-56
2023/06/30 02:26:35;;;;;;;7.13;6.43;;;;;;;16.92;64.86;94715.75;4204748;28;20062;-57
2023/06/30 02:28:36;;;;;;;8.63;7.28;;;;;;;16.95;64.66;94716.19;4209402;28;20485;-57
2023/06/30 02:30:38;;;;;;;10.32;6.55;;;;;;;16.87;64.66;94712.91;4203454;28;20044;-54
2023/06/30 02:32:40;;;;;;;7.60;6.60;;;;;;;16.55;65.46;94718.59;4198728;28;20464;-56
2023/06/30 02:34:42;;;;;;;9.25;7.20;;;;;;;16.42;66.32;94718.53;4200467;28;20596;-55
2023/06/30 02:36:43;;;;;;;9.57;7.10;;;;;;;16.46;66.57;94711.84;4200909;28;20064;-55
2023/06/30 02:38:45;;;;;;;7.55;6.85;;;;;;;16.58;66.39;94720.03;4208351;28;20059;-52
2023/06/30 02:40:47;;;;;;;8.98;7.03;;;;;;;16.63;65.84;94717.66;4196833;28;20224;-54
2023/06/30 02:42:49;;;;;;;9.63;6.97;;;;;;;16.70;65.69;94715.03;4196175;28;20414;-57
2023/06/30 02:44:51;;;;;;;8.63;6.93;;;;;;;16.78;65.23;94720.97;4197796;28;20048;-59
2023/06/30 02:46:53;;;;;;;8.27;7.47;;;;;;;16.85;64.77;94717.56;4207447;28;20052;-56
2023/06/30 02:48:54;;;;;;;12.90;6.60;;;;;;;16.90;64.46;94720.44;4197926;28;20129;-55
2023/06/30 02:50:56;;;;;;;8.32;7.53;;;;;;;16.95;64.40;94712.69;4207001;28;20048;-54
2023/06/30 02:52:59;;;;;;;8.63;7.22;;;;;;;16.97;64.28;94715.97;4207882;28;20056;-57
2023/06/30 02:55:01;;;;;;;7.45;6.70;;;;;;;16.99;63.99;94706.00;4207656;28;20055;-56
2023/06/30 02:57:03;;;;;;;9.48;7.03;;;;;;;16.99;63.87;94713.94;4207368;28;20044;-58
2023/06/30 02:59:04;;;;;;;11.38;7.80;;;;;;;16.98;63.70;94707.84;4201743;28;20106;-55
2023/06/30 03:01:07;;;;;;;11.90;7.38;;;;;;;16.98;63.88;94701.75;4198631;28;20139;-57
2023/06/30 03:03:09;;;;;;;11.00;7.30;;;;;;;16.98;63.72;94712.31;4200817;28;20402;-59
2023/06/30 03:05:11;;;;;;;9.38;7.47;;;;;;;17.00;63.70;94712.94;4209138;28;20052;-58
2023/06/30 03:07:13;;;;;;;8.20;6.78;;;;;;;17.02;63.71;94713.56;4199223;28;20492;-54
2023/06/30 03:09:14;;;;;;;8.35;7.35;;;;;;;17.04;64.08;94708.88;4210643;28;20437;-55
2023/06/30 03:11:16;;;;;;;11.90;8.43;;;;;;;17.01;64.25;94709.28;4207640;28;20044;-56
2023/06/30 03:13:18;;;;;;;14.30;8.98;;;;;;;16.74;64.33;94703.03;4207671;28;20052;-55
2023/06/30 03:15:20;;;;;;;13.57;9.35;;;;;;;16.50;65.35;94707.00;4208470;28;20044;-55
2023/06/30 03:17:22;;;;;;;9.85;7.93;;;;;;;16.42;65.61;94704.50;4201885;28;20053;-54
2023/06/30 03:19:24;;;;;;;9.30;7.82;;;;;;;16.49;65.60;94700.06;4206090;28;20105;-57
2023/06/30 03:21:25;;;;;;;12.10;10.85;;;;;;;16.53;65.67;94701.31;4199853;28;20052;-54
2023/06/30 03:23:27;;;;;;;12.00;9.65;;;;;;;16.49;65.63;94700.06;4209602;28;20048;-55
2023/06/30 03:25:29;;;;;;;11.52;8.40;;;;;;;16.50;65.61;94701.72;4209297;28;20482;-54
2023/06/30 03:27:31;;;;;;;16.05;10.52;;;;;;;16.23;65.70;94703.38;4206049;28;20047;-58
2023/06/30 03:29:32;;;;;;;13.38;9.77;;;;;;;15.93;67.26;94709.66;4200958;28;20182;-56
2023/06/30 03:31:34;;;;;;;13.73;10.55;;;;;;;15.82;67.83;94704.09;4200929;28;20053;-56
2023/06/30 03:33:36;;;;;;;12.15;9.05;;;;;;;15.93;67.64;94712.31;4196927;28;20608;-55
2023/06/30 03:35:37;;;;;;;11.70;9.73;;;;;;;16.04;67.12;94712.78;4198657;28;20741;-58
2023/06/30 03:37:39;;;;;;;11.75;8.90;;;;;;;15.85;66.61;94709.81;4199620;28;20517;-54
2023/06/30 03:39:41;;;;;;;13.13;9.52;;;;;;;15.36;68.28;94706.09;4205110;28;20152;-56
2023/06/30 03:41:42;;;;;;;12.07;10.38;;;;;;;15.06;69.82;94708.03;4197200;28;20059;-57
2023/06/30 03:43:44;;;;;;;15.55;10.68;;;;;;;15.23;70.11;94718.34;4206757;28;20495;-55
2023/06/30 03:45:46;;;;;;;11.30;10.13;;;;;;;15.40;69.05;94711.00;4207420;28;20044;-55
2023/06/30 03:47:48;;;;;;;14.20;9.95;;;;;;;15.50;68.26;94714.97;4200667;28;20395;-58
2023/06/30 03:49:49;;;;;;;9.98;8.05;;;;;;;15.24;68.66;94709.44;4207778;28;20080;-56
2023/06/30 03:51:51;;;;;;;12.65;9.63;;;;;;;15.24;68.96;94712.06;4198929;28;20490;-55
2023/06/30 03:53:53;;;;;;;10.45;9.35;;;;;;;15.14;69.22;94715.84;4212522;28;20135;-58
2023/06/30 03:55:55;;;;;;;14.38;9.57;;;;;;;15.24;69.33;94717.34;4203755;28;20057;-57
2023/06/30 03:57:57;;;;;;;12.93;9.80;;;;;;;15.31;69.61;94705.84;4207313;28;20105;-56
2023/06/30 03:59:58;;;;;;;13.00;8.52;;;;;;;15.52;68.74;94715.59;4205718;28;20070;-57
2023/06/30 04:02:00;;;;;;;10.00;7.95;;;;;;;15.79;67.86;94715.03;4213092;28;20044;-58
2023/06/30 04:04:02;;;;;;;12.15;8.20;;;;;;;16.04;66.78;94718.88;4213254;28;20051;-56
2023/06/30 04:06:04;;;;;;;12.38;9.30;;;;;;;16.11;66.79;94718.94;4212056;28;20142;-57
2023/06/30 04:08:06;;;;;;;14.85;9.55;;;;;;;16.06;66.65;94718.72;4206927;28;20049;-55
2023/06/30 04:10:09;;;;;;;11.93;9.40;;;;;;;16.05;67.23;94723.19;4206074;28;20044;-57
2023/06/30 04:12:10;;;;;;;14.27;9.70;;;;;;;16.08;67.39;94724.63;4208202;28;20044;-55
2023/06/30 04:14:12;;;;;;;13.50;9.10;;;;;;;16.20;66.67;94720.44;4200499;28;20056;-59
2023/06/30 04:16:14;;;;;;;13.23;9.70;;;;;;;16.28;66.46;94722.94;4210461;28;20142;-61
2023/06/30 04:18:15;;;;;;;19.80;9.55;;;;;;;16.39;66.31;94716.31;4199811;28;20072;-58
2023/06/30 04:20:17;;;;;;;12.57;8.63;;;;;;;16.47;66.13;94720.59;4213102;28;20109;-56
2023/06/30 04:22:19;;;;;;;10.10;8.40;;;;;;;16.45;65.95;94712.84;4212115;28;20051;-59
2023/06/30 04:24:20;;;;;;;11.13;8.85;;;;;;;16.33;66.32;94725.00;4211887;28;20124;-59
2023/06/30 04:26:22;;;;;;;12.25;9.00;;;;;;;16.33;66.56;94719.72;4211899;28;20048;-58
2023/06/30 04:28:24;;;;;;;9.90;8.52;;;;;;;16.45;66.37;94719.97;4208144;28;20471;-60
2023/06/30 04:30:26;;;;;;;11.95;8.57;;;;;;;16.58;65.90;94717.41;4198118;28;20052;-56
2023/06/30 04:32:28;;;;;;;10.88;8.77;;;;;;;16.58;65.78;94718.22;4211437;28;20735;-60
2023/06/30 04:34:29;;;;;;;11.60;8.70;;;;;;;16.70;65.54;94717.69;4212633;28;20048;-60
2023/06/30 04:36:31;;;;;;;13.57;8.88;;;;;;;16.81;65.02;94711.84;4203118;28;20491;-59
2023/06/30 04:38:33;;;;;;;11.20;8.30;;;;;;;16.93;64.95;94704.19;4209560;28;20054;-61
2023/06/30 04:40:35;;;;;;;11.50;8.80;;;;;;;17.10;64.11;94715.19;4209417;28;20605;-58
2023/06/30 04:42:37;;;;;;;10.32;8.35;;;;;;;17.25;63.47;94709.75;4202517;28;20044;-59
2023/06/30 04:44:39;;;;;;;9.50;7.75;;;;;;;17.33;63.18;94709.56;4212866;28;20051;-59
2023/06/30 04:46:40;;;;;;;9.23;8.30;;;;;;;17.43;62.91;94707.34;4198544;28;20052;-58
2023/06/30 04:48:42;;;;;;;10.73;8.55;;;;;;;17.54;62.39;94706.75;4212895;28;20658;-61
2023/06/30 04:50:44;;;;;;;10.15;8.50;;;;;;;17.63;62.06;94709.22;4212053;28;20228;-60
2023/06/30 04:52:45;;;;;;;9.00;8.15;;;;;;;17.73;61.99;94710.44;4211908;28;20060;-59
2023/06/30 04:54:48;;;;;;;11.00;9.00;;;;;;;17.74;61.41;94709.41;4211282;28;20096;-59
2023/06/30 04:56:50;;;;;;;10.97;7.80;;;;;;;17.73;61.62;94707.78;4211719;28;20090;-60
2023/06/30 04:58:52;;;;;;;10.80;8.05;;;;;;;17.87;61.20;94710.47;4205925;28;20094;-58
2023/06/30 05:00:56;;;;;;;10.15;8.30;;;;;;;17.95;61.08;94711.09;4198316;28;20063;-58
2023/06/30 05:02:58;;;;;;;;;;;;;;;18.01;61.25;94710.28;4210629;28;20127;-61
2023/06/30 05:05:00;;;;;;;17.25;8.35;;;;;;;18.11;61.02;94711.69;4212737;28;20362;-59
2023/06/30 05:07:01;;;;;;;9.80;8.13;;;;;;;18.15;60.96;94710.25;4211678;28;20052;-59
2023/06/30 05:09:03;;;;;;;8.98;7.90;;;;;;;18.22;60.51;94705.78;4211567;28;20127;-57
2023/06/30 05:11:05;;;;;;;8.98;7.85;;;;;;;18.30;60.48;94710.03;4206903;28;20489;-59
2023/06/30 05:13:09;;;;;;;10.95;8.35;;;;;;;18.39;60.46;94708.78;4205199;28;20063;-55
2023/06/30 05:15:11;;;;;;;20.33;8.77;;;;;;;18.34;60.35;94712.06;4207288;28;20036;-59
2023/06/30 05:17:12;;;;;;;12.57;8.57;;;;;;;18.23;60.47;94712.69;4208075;28;20054;-59
2023/06/30 05:19:14;;;;;;;10.52;8.45;;;;;;;18.29;60.61;94711.88;4200547;28;20711;-59
2023/06/30 05:21:16;;;;;;;13.32;8.82;;;;;;;18.23;60.60;94714.53;4208082;28;20074;-56
2023/06/30 05:23:18;;;;;;;15.15;8.45;;;;;;;18.28;60.39;94710.25;4209102;28;20083;-59
2023/06/30 05:25:20;;;;;;;11.07;8.65;;;;;;;18.36;60.47;94703.91;4209988;28;20456;-57
2023/06/30 05:27:22;;;;;;;9.35;8.45;;;;;;;18.47;60.36;94710.41;4198869;28;20098;-61
2023/06/30 05:29:23;;;;;;;15.25;8.40;;;;;;;18.59;60.14;94714.06;4209054;28;20048;-60
2023/06/30 05:31:27;;;;;;;;;;;;;;;18.68;59.52;94712.81;4210978;28;20044;-60
2023/06/30 05:33:29;;;;;;;11.38;7.53;;;;;;;18.77;59.25;94716.06;4196132;28;19959;-57
2023/06/30 05:35:30;;;;;;;19.80;8.50;;;;;;;18.87;59.26;94719.13;4207464;28;20058;-62
2023/06/30 05:37:32;;;;;;;10.27;7.72;;;;;;;18.94;59.52;94716.44;4195980;28;20041;-58
2023/06/30 05:39:34;;;;;;;11.40;9.02;;;;;;;19.02;58.72;94721.50;4195099;28;20152;-61
2023/06/30 05:41:36;;;;;;;12.68;8.20;;;;;;;19.08;58.75;94723.31;4194633;28;20468;-62
2023/06/30 05:43:40;;;;;;;16.95;9.25;;;;;;;19.09;58.80;94719.63;4196888;28;20072;-59
2023/06/30 05:45:41;;;;;;;16.90;9.70;;;;;;;19.09;58.41;94724.13;4206539;28;20463;-59
2023/06/30 05:47:44;;;;;;;12.35;9.23;;;;;;;18.95;58.66;94718.06;4196040;28;20048;-62
2023/06/30 05:49:45;;;;;;;13.38;9.20;;;;;;;18.61;59.78;94720.00;4207580;28;20060;-61
2023/06/30 05:51:48;;;;;;;13.43;9.88;;;;;;;18.65;60.05;94723.84;4209041;28;20075;-60
2023/06/30 05:53:50;;;;;;;14.00;9.57;;;;;;;18.69;60.12;94724.22;4211352;28;20410;-56
2023/06/30 05:55:51;;;;;;;12.60;8.95;;;;;;;18.44;60.12;94734.72;4202002;28;20490;-61
2023/06/30 05:57:53;;;;;;;15.98;9.40;;;;;;;18.29;61.12;94724.34;4196520;28;20053;-60
2023/06/30 05:59:55;;;;;;;18.35;9.35;;;;;;;18.21;61.43;94726.16;4210352;28;20083;-62
2023/06/30 06:01:56;;;;;;;13.13;8.82;;;;;;;18.46;60.88;94720.22;4210819;28;20044;-60
2023/06/30 06:03:58;;;;;;;15.23;9.70;;;;;;;18.68;60.37;94723.44;4210948;28;20412;-60
2023/06/30 06:06:00;;;;;;;12.93;9.73;;;;;;;18.88;60.21;94728.69;4206466;28;20167;-59
2023/06/30 06:08:02;;;;;;;14.50;9.32;;;;;;;19.00;60.09;94729.69;4210530;28;20417;-58
2023/06/30 06:10:05;;;;;;;10.63;8.85;;;;;;;18.98;60.49;94730.91;4210988;28;20074;-59
2023/06/30 06:12:07;;;;;;;14.18;9.13;;;;;;;19.13;60.07;94739.44;4208396;28;20048;-58
2023/06/30 06:14:08;;;;;;;17.40;9.32;;;;;;;19.18;59.43;94738.78;4201303;28;20060;-60
2023/06/30 06:16:10;;;;;;;14.10;8.85;;;;;;;19.21;59.12;94735.72;4199992;28;20040;-56
2023/06/30 06:18:12;;;;;;;13.23;9.00;;;;;;;18.99;58.92;94732.53;4199043;28;20044;-56
2023/06/30 06:20:13;;;;;;;13.05;8.82;;;;;;;18.78;58.99;94729.16;4205664;28;20044;-60
2023/06/30 06:22:15;;;;;;;13.05;9.27;;;;;;;18.94;59.06;94733.16;4194571;28;20059;-58
2023/06/30 06:24:17;;;;;;;13.20;9.15;;;;;;;19.09;59.06;94727.59;4195836;28;20052;-60
2023/06/30 06:26:18;;;;;;;12.57;8.73;;;;;;;19.26;58.74;94727.13;4207252;28;20117;-59
2023/06/30 06:28:20;;;;;;;31.15;10.60;;;;;;;19.32;58.90;94723.63;4195454;28;20053;-58
2023/06/30 06:30:22;;;;;;;18.48;10.00;;;;;;;19.40;58.50;94731.31;4204454;28;20109;-56
2023/06/30 06:32:23;;;;;;;14.27;9.18;;;;;;;19.49;57.90;94722.09;4210550;28;20048;-59
2023/06/30 06:34:25;;;;;;;19.40;8.65;;;;;;;19.65;57.61;94718.91;4210823;28;20075;-57
2023/06/30 06:36:27;;;;;;;12.75;9.20;;;;;;;19.76;57.66;94724.59;4210416;28;20060;-59
2023/06/30 06:38:28;;;;;;;19.60;9.15;;;;;;;19.76;57.15;94724.59;4210690;28;20052;-60
2023/06/30 06:40:30;;;;;;;13.68;9.15;;;;;;;19.91;57.32;94727.75;4210012;28;20089;-56
2023/06/30 06:42:32;;;;;;;10.57;8.48;;;;;;;19.93;57.34;94724.88;4210068;28;20398;-58
2023/06/30 06:44:34;;;;;;;14.18;9.57;;;;;;;19.91;57.28;94733.06;4211158;28;20090;-58
2023/06/30 06:46:36;;;;;;;10.68;7.85;;;;;;;19.99;56.86;94718.72;4211016;28;20458;-60
2023/06/30 06:48:38;;;;;;;14.00;8.70;;;;;;;20.15;56.47;94727.97;4208843;28;20174;-57
2023/06/30 06:50:39;;;;;;;15.02;8.95;;;;;;;20.13;56.60;94722.06;4194702;28;20075;-57
2023/06/30 06:52:41;;;;;;;11.13;8.45;;;;;;;20.00;56.26;94717.66;4194713;28;20059;-55
2023/06/30 06:54:43;;;;;;;13.65;8.45;;;;;;;19.80;56.81;94725.81;4207464;28;20056;-57
2023/06/30 06:56:45;;;;;;;10.38;8.20;;;;;;;19.92;56.93;94716.09;4198793;28;20040;-58
2023/06/30 06:58:47;;;;;;;14.03;8.27;;;;;;;20.15;56.17;94717.34;4204644;28;20461;-58
2023/06/30 07:00:50;;;;;;;12.20;8.00;;;;;;;20.38;55.99;94714.06;4195890;28;20135;-62
2023/06/30 07:02:52;;;;;;;10.98;8.00;;;;;;;20.21;55.72;94717.28;4208475;28;20052;-59
2023/06/30 07:04:54;;;;;;;13.63;7.57;;;;;;;20.25;56.21;94718.47;4210988;28;20105;-59
2023/06/30 07:06:56;;;;;;;10.00;7.50;;;;;;;20.32;55.94;94714.94;4203350;28;20095;-57
2023/06/30 07:08:57;;;;;;;10.73;7.00;;;;;;;20.54;55.60;94710.84;4196642;28;20044;-59
2023/06/30 07:10:59;;;;;;;9.73;7.15;;;;;;;20.58;54.59;94712.03;4208875;28;20047;-56
2023/06/30 07:13:01;;;;;;;14.00;7.55;;;;;;;20.16;55.95;94716.31;4209416;28;20044;-58
2023/06/30 07:15:04;;;;;;;15.45;8.23;;;;;;;19.56;57.15;94712.22;4208762;28;20156;-59
2023/06/30 07:17:06;;;;;;;16.40;8.10;;;;;;;19.49;57.82;94713.28;4209360;28;20135;-55
2023/06/30 07:19:07;;;;;;;14.27;8.30;;;;;;;19.75;57.76;94707.84;4210020;28;20730;-57
2023/06/30 07:21:09;;;;;;;14.63;9.95;;;;;;;19.94;56.99;94705.22;4209791;28;20117;-58
2023/06/30 07:23:11;;;;;;;10.63;8.27;;;;;;;20.13;56.82;94706.91;4210165;28;20051;-60
2023/06/30 07:25:13;;;;;;;12.75;7.90;;;;;;;20.36;57.00;94705.50;4210724;28;20047;-55
2023/06/30 07:27:15;;;;;;;11.30;8.38;;;;;;;20.59;55.83;94699.56;4212828;28;20047;-56
2023/06/30 07:29:16;;;;;;;17.67;10.40;;;;;;;20.58;54.57;94698.72;4213009;28;20424;-59
2023/06/30 07:31:18;;;;;;;12.70;7.45;;;;;;;20.56;54.96;94692.78;4213452;28;20052;-57
2023/06/30 07:33:20;;;;;;;12.95;7.47;;;;;;;20.64;55.35;94697.03;4214277;28;20047;-61
2023/06/30 07:35:22;;;;;;;16.83;7.88;;;;;;;20.63;54.72;94698.09;4212696;28;20052;-59
2023/06/30 07:37:24;;;;;;;9.90;6.90;;;;;;;20.78;54.57;94698.53;4213578;28;20047;-58
2023/06/30 07:39:26;;;;;;;13.13;7.50;;;;;;;20.97;53.56;94694.00;4213351;28;20476;-58
2023/06/30 07:41:34;;;;;;;9.88;6.80;;;;;;;21.10;52.97;94694.88;4213171;28;20048;-59
2023/06/30 07:43:37;;;;;;;15.10;7.57;;;;;;;21.23;52.39;94694.69;4212846;28;20158;-57
2023/06/30 07:45:38;;;;;;;8.27;6.75;;;;;;;21.47;52.69;94692.97;4212773;28;20401;-57
2023/06/30 07:47:41;;;;;;;12.68;7.03;;;;;;;21.42;51.67;94698.16;4213539;28;20090;-55
2023/06/30 07:49:44;;;;;;;14.90;10.60;;;;;;;21.26;50.74;94694.25;4214180;28;20548;-58
2023/06/30 07:51:46;;;;;;;11.65;7.93;;;;;;;21.26;51.19;94702.25;4209881;28;20447;-59
2023/06/30 07:53:48;;;;;;;10.77;7.40;;;;;;;21.28;51.32;94694.84;4197461;28;20086;-57
2023/06/30 07:55:50;;;;;;;8.98;6.60;;;;;;;21.32;50.86;94695.22;4206719;28;20052;-59
2023/06/30 07:57:52;;;;;;;10.63;6.45;;;;;;;21.43;51.00;94689.13;4211131;28;20052;-57
2023/06/30 07:59:54;;;;;;;9.00;6.97;;;;;;;21.61;50.63;94689.06;4201941;28;20075;-59
2023/06/30 08:01:57;;;;;;;6.03;4.70;;;;;;;21.72;49.12;94684.78;4213109;28;20633;-60
2023/06/30 08:03:59;;;;;;;8.00;4.97;;;;;;;21.67;48.77;94688.16;4214050;28;20378;-59
2023/06/30 08:06:01;;;;;;;10.25;4.57;;;;;;;21.88;49.34;94689.47;4211340;28;20048;-57
2023/06/30 08:08:03;;;;;;;10.25;5.40;;;;;;;21.95;49.27;94685.91;4212519;28;20497;-58
2023/06/30 08:10:05;;;;;;;10.15;5.50;;;;;;;22.10;49.24;94683.59;4212904;28;20087;-55
2023/06/30 08:12:07;;;;;;;9.27;5.93;;;;;;;22.24;48.74;94686.84;4212251;28;20078;-60
2023/06/30 08:14:09;;;;;;;8.52;5.75;;;;;;;22.37;48.58;94683.16;4200891;28;20044;-61
2023/06/30 08:16:11;;;;;;;7.03;5.50;;;;;;;22.45;48.40;94682.81;4209895;28;20052;-64
2023/06/30 08:18:13;;;;;;;10.27;5.57;;;;;;;22.52;48.92;94677.34;4201413;28;20048;-61
2023/06/30 08:20:32;;;;;;;15.45;5.43;;;;;;;22.66;48.83;94670.72;4207895;28;20054;-58
2023/06/30 08:22:34;;;;;;;12.02;5.30;;;;;;;22.84;48.33;94678.59;4203567;28;20048;-59
2023/06/30 08:24:35;;;;;;;8.93;5.25;;;;;;;23.04;47.85;94667.50;4201409;28;20048;-59
2023/06/30 08:26:37;;;;;;;8.20;4.75;;;;;;;23.14;46.51;94668.75;4208569;28;20094;-58
2023/06/30 08:28:39;;;;;;;7.15;4.38;;;;;;;23.25;46.61;94666.06;4212483;28;20444;-56
2023/06/30 08:30:40;;;;;;;7.13;4.82;;;;;;;23.37;45.86;94660.63;4208841;28;20040;-59
2023/06/30 08:32:43;;;;;;;7.95;4.43;;;;;;;23.51;45.49;94653.94;4212630;28;20069;-58
2023/06/30 08:34:44;;;;;;;9.82;5.25;;;;;;;23.55;43.53;94658.81;4212871;28;20090;-57
2023/06/30 08:36:46;;;;;;;6.88;4.30;;;;;;;23.55;43.72;94654.25;4212423;28;20146;-58
2023/06/30 08:38:48;;;;;;;8.55;5.13;;;;;;;23.59;43.61;94649.25;4209720;28;20056;-60
2023/06/30 08:40:49;;;;;;;9.60;4.88;;;;;;;23.39;44.28;94650.53;4213411;28;20418;-57
2023/06/30 08:42:52;;;;;;;7.50;5.03;;;;;;;23.34;44.06;94644.25;4212454;28;20109;-59
2023/06/30 08:44:55;;;;;;;6.07;4.43;;;;;;;23.45;44.41;94640.75;4212715;28;20048;-58
2023/06/30 08:46:57;;;;;;;8.87;4.53;;;;;;;23.58;43.94;94640.44;4199284;28;20048;-60
2023/06/30 08:48:59;;;;;;;7.20;4.25;;;;;;;23.71;43.90;94641.97;4205427;28;20312;-58
2023/06/30 08:51:01;;;;;;;9.63;4.22;;;;;;;23.69;43.80;94641.41;4194783;28;20102;-57
2023/06/30 08:53:04;;;;;;;14.15;4.95;;;;;;;23.57;43.96;94635.31;4207741;28;20138;-57
2023/06/30 08:55:07;;;;;;;11.68;4.80;;;;;;;23.70;44.40;94638.50;4212238;28;20063;-56
2023/06/30 08:57:09;;;;;;;8.00;4.03;;;;;;;23.58;43.35;94632.41;4210939;28;20375;-58
2023/06/30 08:59:10;;;;;;;8.32;3.95;;;;;;;23.62;44.03;94630.88;4198597;28;20098;-59
2023/06/30 09:01:13;;;;;;;8.45;4.63;;;;;;;23.71;44.97;94634.75;4199852;28;20048;-59
2023/06/30 09:03:15;;;;;;;5.43;4.32;;;;;;;23.84;43.87;94632.84;4208562;28;20114;-57
2023/06/30 09:05:17;;;;;;;8.45;4.30;;;;;;;23.97;43.41;94631.72;4196570;28;20053;-58
2023/06/30 09:07:23;;;;;;;8.68;4.93;;;;;;;24.05;42.90;94632.13;4197178;28;20044;-56
2023/06/30 09:09:27;;;;;;;6.78;4.85;;;;;;;24.17;43.15;94636.56;4209536;28;20089;-55
2023/06/30 09:11:30;;;;;;;6.50;4.82;;;;;;;24.24;43.21;94631.84;4204069;28;20616;-59
2023/06/30 09:13:33;;;;;;;7.45;5.38;;;;;;;24.40;43.20;94628.31;4209370;28;20048;-57
2023/06/30 09:15:35;;;;;;;5.90;4.15;;;;;;;24.56;42.46;94623.19;4210375;28;20078;-59
2023/06/30 09:17:36;;;;;;;9.75;4.45;;;;;;;24.66;41.51;94631.38;4211502;28;20054;-60
2023/06/30 09:19:39;;;;;;;5.30;3.95;;;;;;;24.71;41.29;94628.75;4211531;28;20046;-58
2023/06/30 09:21:41;;;;;;;9.75;5.45;;;;;;;24.43;40.57;94627.81;4198958;28;20151;-58
2023/06/30 09:23:43;;;;;;;8.52;4.60;;;;;;;24.03;42.11;94628.88;4206067;28;20040;-57
2023/06/30 09:25:45;;;;;;;6.45;4.70;;;;;;;23.81;41.87;94633.31;4196211;28;20091;-59
2023/06/30 09:27:47;;;;;;;10.30;4.90;;;;;;;23.63;42.53;94632.47;4197979;28;20047;-57
2023/06/30 09:29:53;;;;;;;7.03;4.80;;;;;;;23.62;42.83;94628.19;4199331;28;20059;-58
2023/06/30 09:32:00;;;;;;;6.88;5.18;;;;;;;23.64;42.80;94619.91;4207389;28;20486;-58